Time;durP1;ratioP1;P1;durP2;ratioP2;P2;SDS_P1;SDS_P2;PMS_P1;PMS_P2;Temp;Humidity;BMP_temperature;BMP_pressure;BME280_temperature;BME280_humidity;BME280_pressure;Samples;Min_cycle;Max_cycle;Signal;HPM_P1;HPM_P2
2023/03/05 00:01:21;;;;;;;28.50;18.43;;;2.40;99.90;;;;;;5061459;28;20443;-80
2023/03/05 00:03:48;;;;;;;25.37;17.17;;;2.50;99.90;;;;;;5055406;28;20444;-80
2023/03/05 00:06:16;;;;;;;27.73;17.30;;;2.40;99.90;;;;;;5059718;28;20484;-80
2023/03/05 00:08:44;;;;;;;25.83;17.63;;;2.50;99.90;;;;;;5060826;28;20457;-80
2023/03/05 00:11:13;;;;;;;31.00;18.97;;;2.50;99.90;;;;;;5063858;28;20442;-80
2023/03/05 00:13:40;;;;;;;30.00;17.57;;;2.60;99.90;;;;;;5064682;28;20486;-80
2023/03/05 00:16:10;;;;;;;26.47;17.90;;;2.60;99.90;;;;;;5071227;28;20496;-80
2023/03/05 00:18:37;;;;;;;26.67;17.90;;;2.50;99.90;;;;;;5069258;28;20450;-80
2023/03/05 00:21:06;;;;;;;24.23;17.10;;;2.50;99.90;;;;;;5062517;28;20446;-80
2023/03/05 00:23:33;;;;;;;24.93;17.43;;;2.60;99.90;;;;;;5064922;28;20443;-80
2023/03/05 00:26:06;;;;;;;29.80;18.53;;;2.80;99.90;;;;;;5058483;28;20487;-80
2023/03/05 00:28:33;;;;;;;27.47;18.20;;;3.00;99.90;;;;;;5067558;28;20477;-80
2023/03/05 00:31:01;;;;;;;32.87;18.17;;;2.80;99.90;;;;;;5067721;28;20458;-80
2023/03/05 00:33:28;;;;;;;26.50;16.87;;;2.60;99.90;;;;;;5066901;28;20507;-80
2023/03/05 00:35:55;;;;;;;25.93;16.90;;;2.70;99.90;;;;;;5062843;28;20470;-80
2023/03/05 00:38:22;;;;;;;35.60;17.23;;;2.60;99.90;;;;;;5065023;28;20618;-81
2023/03/05 00:40:51;;;;;;;20.47;16.23;;;2.70;99.90;;;;;;5062852;28;20869;-80
2023/03/05 00:43:19;;;;;;;30.73;18.60;;;2.80;99.90;;;;;;5059592;28;20439;-80
2023/03/05 00:45:46;;;;;;;30.90;19.40;;;2.60;99.90;;;;;;5060790;28;20467;-80
2023/03/05 00:48:13;;;;;;;24.10;17.47;;;2.20;99.90;;;;;;5060844;28;20478;-80
2023/03/05 00:50:40;;;;;;;25.60;17.13;;;2.20;99.90;;;;;;5067005;28;20436;-80
2023/03/05 00:53:07;;;;;;;25.83;17.97;;;2.30;99.90;;;;;;5064195;28;20517;-80
2023/03/05 00:55:34;;;;;;;25.43;17.40;;;2.40;99.90;;;;;;5067186;28;20498;-80
2023/03/05 00:58:02;;;;;;;29.23;18.00;;;2.40;99.90;;;;;;5078352;28;20527;-80
2023/03/05 01:00:30;;;;;;;27.30;15.30;;;2.40;99.90;;;;;;5078706;28;20456;-80
2023/03/05 01:02:57;;;;;;;27.47;18.43;;;2.30;99.90;;;;;;5079984;28;20474;-79
2023/03/05 01:05:24;;;;;;;31.93;17.87;;;2.30;99.90;;;;;;5063845;28;20495;-80
2023/03/05 01:07:53;;;;;;;28.23;18.20;;;2.30;99.90;;;;;;5067776;28;20478;-80
2023/03/05 01:10:20;;;;;;;24.93;19.50;;;2.30;99.90;;;;;;5083715;28;20497;-80
2023/03/05 01:12:47;;;;;;;32.20;18.97;;;2.30;99.90;;;;;;5084546;28;20888;-80
2023/03/05 01:15:14;;;;;;;29.77;21.37;;;2.30;99.90;;;;;;5068094;28;20442;-80
2023/03/05 01:17:42;;;;;;;26.33;17.90;;;2.30;99.90;;;;;;5075146;28;20468;-80
2023/03/05 01:20:12;;;;;;;25.33;17.70;;;2.40;99.90;;;;;;5087700;28;20434;-80
2023/03/05 01:22:40;;;;;;;26.20;17.33;;;2.50;99.90;;;;;;5083582;28;20442;-80
2023/03/05 01:25:07;;;;;;;28.47;16.83;;;2.30;99.90;;;;;;5083308;28;20448;-80
2023/03/05 01:27:35;;;;;;;27.10;16.13;;;2.10;99.90;;;;;;5081696;28;20473;-80
2023/03/05 01:30:02;;;;;;;28.10;18.00;;;2.00;99.90;;;;;;5083101;28;20457;-80
2023/03/05 01:32:29;;;;;;;30.77;18.60;;;1.90;99.90;;;;;;5082431;28;20476;-80
2023/03/05 01:34:57;;;;;;;27.30;17.07;;;2.10;99.90;;;;;;5083075;28;20495;-80
2023/03/05 01:37:24;;;;;;;27.90;16.97;;;2.30;99.90;;;;;;5074837;28;20450;-80
2023/03/05 01:39:51;;;;;;;28.90;18.10;;;2.30;99.90;;;;;;5060814;28;20431;-80
2023/03/05 01:42:19;;;;;;;31.50;19.10;;;2.30;99.90;;;;;;5060189;28;20438;-80
2023/03/05 01:45:02;;;;;;;26.90;18.63;;;1.80;99.90;;;;;;5061990;28;20447;-80
2023/03/05 01:47:29;;;;;;;29.60;18.70;;;1.80;99.90;;;;;;5065280;28;20451;-80
2023/03/05 01:49:58;;;;;;;32.33;18.00;;;1.70;99.90;;;;;;5075377;28;20437;-80
2023/03/05 01:52:26;;;;;;;26.20;17.23;;;1.90;99.90;;;;;;5082154;28;20477;-80
2023/03/05 01:54:56;;;;;;;31.40;18.13;;;2.10;99.90;;;;;;5085486;28;20467;-80
2023/03/05 01:57:26;;;;;;;25.20;17.70;;;1.80;99.90;;;;;;5089467;28;20440;-80
2023/03/05 01:59:57;;;;;;;29.30;19.10;;;1.90;99.90;;;;;;5091431;28;20471;-80
2023/03/05 02:02:25;;;;;;;31.27;18.83;;;2.10;99.90;;;;;;5062299;28;20433;-80
2023/03/05 02:04:57;;;;;;;28.97;18.37;;;2.10;99.90;;;;;;5078342;28;20473;-80
2023/03/05 02:07:26;;;;;;;35.93;19.37;;;2.10;99.90;;;;;;5078344;28;20470;-80
2023/03/05 02:09:53;;;;;;;28.70;19.53;;;2.10;99.90;;;;;;5078944;28;20441;-80
2023/03/05 02:12:20;;;;;;;33.10;21.20;;;2.00;99.90;;;;;;5070525;28;20501;-80
2023/03/05 02:14:57;;;;;;;29.83;18.70;;;2.00;99.90;;;;;;5058837;28;20452;-80
2023/03/05 02:17:26;;;;;;;31.63;17.93;;;2.10;99.90;;;;;;5060132;28;20456;-80
2023/03/05 02:19:56;;;;;;;34.87;19.33;;;2.00;99.90;;;;;;5077337;28;20441;-80
2023/03/05 02:22:25;;;;;;;33.67;19.07;;;1.80;99.90;;;;;;5078844;28;20976;-80
2023/03/05 02:24:52;;;;;;;32.53;17.73;;;1.70;99.90;;;;;;5078870;28;20430;-80
2023/03/05 02:27:22;;;;;;;32.33;20.10;;;1.60;99.90;;;;;;5079037;28;20461;-80
2023/03/05 02:29:50;;;;;;;24.57;17.23;;;1.70;99.90;;;;;;5078505;28;20441;-80
2023/03/05 02:32:18;;;;;;;28.50;19.40;;;1.70;99.90;;;;;;5063010;28;20450;-80
2023/03/05 02:34:45;;;;;;;35.03;19.00;;;1.90;99.90;;;;;;5065899;28;20438;-80
2023/03/05 02:37:12;;;;;;;28.20;18.33;;;2.10;99.90;;;;;;5070245;28;20461;-80
2023/03/05 02:39:40;;;;;;;30.17;19.30;;;2.10;99.90;;;;;;5090497;28;20505;-80
2023/03/05 02:42:07;;;;;;;30.27;17.80;;;2.10;99.90;;;;;;5068293;28;20442;-80
2023/03/05 02:44:34;;;;;;;30.37;19.07;;;2.10;99.90;;;;;;5066217;28;20450;-80
2023/03/05 02:47:01;;;;;;;29.87;19.93;;;2.00;99.90;;;;;;5084271;28;20464;-80
2023/03/05 02:49:29;;;;;;;36.07;19.97;;;2.10;99.90;;;;;;5073545;28;20446;-80
2023/03/05 02:51:55;;;;;;;28.97;17.30;;;2.10;99.90;;;;;;5074783;28;20450;-80
2023/03/05 02:54:23;;;;;;;25.43;18.30;;;2.20;99.90;;;;;;5064295;28;20946;-80
2023/03/05 02:56:51;;;;;;;27.80;18.17;;;2.00;99.90;;;;;;5059363;28;20462;-80
2023/03/05 02:59:18;;;;;;;31.47;19.77;;;2.00;99.90;;;;;;5056150;28;20430;-80
2023/03/05 03:01:45;;;;;;;27.80;18.60;;;2.00;99.90;;;;;;5059769;28;20450;-80
2023/03/05 03:04:12;;;;;;;33.80;19.40;;;2.00;99.90;;;;;;5056661;28;20441;-80
2023/03/05 03:06:39;;;;;;;31.17;19.73;;;1.90;99.90;;;;;;5057323;28;20450;-80
2023/03/05 03:09:06;;;;;;;29.93;18.00;;;1.80;99.90;;;;;;5072481;28;20802;-80
2023/03/05 03:11:33;;;;;;;30.13;18.57;;;1.90;99.90;;;;;;5077940;28;20483;-80
2023/03/05 03:14:01;;;;;;;29.50;18.13;;;2.00;99.90;;;;;;5078147;28;20482;-80
2023/03/05 03:16:28;;;;;;;31.07;19.20;;;1.90;99.90;;;;;;5079321;28;20468;-80
2023/03/05 03:18:55;;;;;;;31.90;20.17;;;1.40;99.90;;;;;;5081581;28;20429;-80
2023/03/05 03:21:25;;;;;;;30.73;21.57;;;1.80;99.90;;;;;;5075636;28;20438;-80
2023/03/05 03:23:52;;;;;;;34.50;20.13;;;1.40;99.90;;;;;;5068804;28;20505;-80
2023/03/05 03:26:19;;;;;;;35.57;20.80;;;1.60;99.90;;;;;;5082625;28;20520;-80
2023/03/05 03:28:47;;;;;;;27.93;18.20;;;1.60;99.90;;;;;;5080678;28;20434;-80
2023/03/05 03:31:15;;;;;;;29.03;18.87;;;1.60;99.90;;;;;;5072451;28;20457;-80
2023/03/05 03:33:42;;;;;;;30.20;19.37;;;1.80;99.90;;;;;;5081109;28;20477;-80
2023/03/05 03:36:09;;;;;;;35.97;20.00;;;1.70;99.90;;;;;;5081127;28;20465;-80
2023/03/05 03:38:37;;;;;;;30.03;19.33;;;1.70;99.90;;;;;;5070565;28;20477;-80
2023/03/05 03:41:06;;;;;;;35.17;19.90;;;1.60;99.90;;;;;;5067658;28;20454;-80
2023/03/05 03:43:33;;;;;;;31.90;19.40;;;1.70;99.90;;;;;;5063198;28;20442;-80
2023/03/05 03:46:00;;;;;;;27.93;18.47;;;1.50;99.90;;;;;;5053663;28;20470;-80
2023/03/05 03:48:28;;;;;;;34.97;20.97;;;1.60;99.90;;;;;;5060846;28;20476;-80
2023/03/05 03:50:55;;;;;;;35.07;20.10;;;1.50;99.90;;;;;;5077404;28;20449;-80
2023/03/05 03:53:22;;;;;;;32.67;19.30;;;1.50;99.90;;;;;;5063197;28;20470;-80
2023/03/05 03:55:49;;;;;;;29.20;18.50;;;1.40;99.90;;;;;;5067618;28;20462;-80
2023/03/05 03:58:16;;;;;;;27.53;19.97;;;1.60;99.90;;;;;;5067580;28;20438;-80
2023/03/05 04:00:43;;;;;;;35.00;19.90;;;1.30;99.90;;;;;;5059852;28;20495;-80
2023/03/05 04:03:10;;;;;;;26.87;18.63;;;1.30;99.90;;;;;;5078418;28;20441;-80
2023/03/05 04:05:38;;;;;;;38.43;19.47;;;1.60;99.90;;;;;;5083700;28;20484;-80
2023/03/05 04:08:10;;;;;;;36.97;20.67;;;1.70;99.90;;;;;;5083229;28;20444;-80
2023/03/05 04:10:37;;;;;;;26.37;18.20;;;1.70;99.90;;;;;;5085140;28;20436;-80
2023/03/05 04:13:04;;;;;;;34.70;19.17;;;1.60;99.90;;;;;;5067489;28;20482;-80
2023/03/05 04:15:31;;;;;;;38.53;20.80;;;1.50;99.90;;;;;;5070190;28;20465;-80
2023/03/05 04:17:59;;;;;;;34.33;21.27;;;1.40;99.90;;;;;;5068567;28;20434;-80
2023/03/05 04:20:26;;;;;;;29.37;18.67;;;1.60;99.90;;;;;;5067067;28;20442;-80
2023/03/05 04:22:54;;;;;;;32.73;22.10;;;1.60;99.90;;;;;;5067744;28;20445;-80
2023/03/05 04:25:22;;;;;;;34.87;23.30;;;1.80;99.90;;;;;;5067776;28;20465;-80
2023/03/05 04:27:49;;;;;;;37.67;23.60;;;2.00;99.90;;;;;;5068141;28;20473;-80
2023/03/05 04:30:16;;;;;;;30.77;20.17;;;1.90;99.90;;;;;;5088467;28;20440;-80
2023/03/05 04:32:43;;;;;;;30.53;19.90;;;1.90;99.90;;;;;;5087530;28;20542;-81
2023/03/05 04:35:10;;;;;;;33.63;21.10;;;1.90;99.90;;;;;;5089374;28;20445;-82
2023/03/05 04:37:37;;;;;;;31.57;20.10;;;1.90;99.90;;;;;;5088758;28;20489;-81
2023/03/05 04:40:08;;;;;;;32.33;19.20;;;1.80;99.90;;;;;;5089793;28;20937;-80
2023/03/05 04:42:34;;;;;;;35.40;21.00;;;1.80;99.90;;;;;;5076392;28;20514;-80
2023/03/05 04:45:01;;;;;;;35.30;21.03;;;1.90;99.90;;;;;;5068075;28;20465;-80
2023/03/05 04:47:28;;;;;;;31.50;19.80;;;2.10;99.90;;;;;;5084382;28;20461;-80
2023/03/05 04:49:55;;;;;;;33.20;18.73;;;2.20;99.90;;;;;;5090411;28;20439;-80
2023/03/05 04:52:22;;;;;;;30.70;20.40;;;2.40;99.90;;;;;;5078981;28;20442;-80
2023/03/05 04:54:49;;;;;;;24.13;17.63;;;2.40;99.90;;;;;;5084131;28;20477;-80
2023/03/05 04:57:18;;;;;;;32.27;19.47;;;2.40;99.90;;;;;;5092018;28;20519;-80
2023/03/05 04:59:45;;;;;;;30.10;19.20;;;2.40;99.90;;;;;;5091491;28;20442;-80
2023/03/05 05:02:12;;;;;;;30.50;19.30;;;2.40;99.90;;;;;;5091065;28;20789;-80
2023/03/05 05:04:39;;;;;;;30.13;20.13;;;2.40;99.90;;;;;;5088361;28;20450;-80
2023/03/05 05:07:07;;;;;;;30.53;20.80;;;2.30;99.90;;;;;;5086044;28;20487;-80
2023/03/05 05:09:34;;;;;;;33.60;20.00;;;2.30;99.90;;;;;;5092010;28;20449;-80
2023/03/05 05:12:00;;;;;;;27.87;19.77;;;2.30;99.90;;;;;;5071888;28;20460;-80
2023/03/05 05:14:29;;;;;;;34.07;20.33;;;2.40;99.90;;;;;;5069961;28;20475;-80
2023/03/05 05:16:56;;;;;;;29.67;17.27;;;2.40;99.90;;;;;;5070578;28;20468;-80
2023/03/05 05:19:23;;;;;;;34.47;20.47;;;2.40;99.90;;;;;;5082056;28;20443;-80
2023/03/05 05:21:50;;;;;;;31.77;19.30;;;2.20;99.90;;;;;;5082964;28;20459;-80
2023/03/05 05:24:17;;;;;;;33.80;21.10;;;2.30;99.90;;;;;;5057359;28;20455;-80
2023/03/05 05:26:44;;;;;;;28.73;20.13;;;2.40;99.90;;;;;;5046487;28;20484;-80
2023/03/05 05:29:11;;;;;;;31.20;21.30;;;2.40;99.90;;;;;;5046986;28;20460;-80
2023/03/05 05:31:39;;;;;;;34.33;21.80;;;2.50;99.90;;;;;;5059090;28;20440;-80
2023/03/05 05:34:06;;;;;;;28.60;19.00;;;2.30;99.90;;;;;;5060934;28;20489;-80
2023/03/05 05:36:33;;;;;;;34.23;20.57;;;2.20;99.90;;;;;;5060207;28;20490;-80
2023/03/05 05:39:00;;;;;;;29.20;18.90;;;2.30;99.90;;;;;;5060034;28;20504;-80
2023/03/05 05:41:27;;;;;;;34.40;20.07;;;2.40;99.90;;;;;;5067019;28;20437;-80
2023/03/05 05:43:54;;;;;;;28.60;19.70;;;2.30;99.90;;;;;;5081653;28;20935;-80
2023/03/05 05:46:21;;;;;;;30.90;22.43;;;2.20;99.90;;;;;;5060980;28;20465;-80
2023/03/05 05:48:50;;;;;;;34.10;21.50;;;2.10;99.90;;;;;;5061711;28;20446;-80
2023/03/05 05:51:19;;;;;;;28.50;19.40;;;2.00;99.90;;;;;;5064042;22;20502;-49
2023/03/05 05:53:46;;;;;;;38.63;23.13;;;1.80;99.90;;;;;;5014946;28;20487;-50
2023/03/05 05:56:15;;;;;;;27.70;19.03;;;1.70;99.90;;;;;;5015864;28;20962;-49
2023/03/05 05:58:45;;;;;;;30.83;20.70;;;1.60;99.90;;;;;;5016367;28;20472;-49
2023/03/05 06:01:14;;;;;;;32.30;19.53;;;1.50;99.90;;;;;;5015503;28;21037;-49
2023/03/05 06:03:41;;;;;;;33.27;19.93;;;1.60;99.90;;;;;;5016421;28;20515;-49
2023/03/05 06:06:14;;;;;;;29.40;20.97;;;1.60;99.90;;;;;;5065568;22;20545;-75
2023/03/05 06:08:41;;;;;;;33.67;22.03;;;1.60;99.90;;;;;;5051930;28;20438;-75
2023/03/05 06:11:08;;;;;;;37.03;22.97;;;1.80;99.90;;;;;;5051612;28;20997;-75
2023/03/05 06:13:35;;;;;;;34.57;20.93;;;1.90;99.90;;;;;;5051648;28;20921;-75
2023/03/05 06:16:06;;;;;;;34.50;20.17;;;2.00;99.90;;;;;;5051237;28;20486;-76
2023/03/05 06:18:34;;;;;;;35.13;21.70;;;1.90;99.90;;;;;;5051358;28;20492;-75
2023/03/05 06:21:02;;;;;;;36.63;22.77;;;1.90;99.90;;;;;;5050502;28;21059;-75
2023/03/05 06:23:31;;;;;;;38.90;24.63;;;2.00;99.90;;;;;;5051445;28;20478;-75
2023/03/05 06:26:00;;;;;;;37.47;26.50;;;1.80;99.90;;;;;;5051846;28;20476;-75
2023/03/05 06:28:27;;;;;;;35.03;22.83;;;1.90;99.90;;;;;;5051395;28;20521;-75
2023/03/05 06:31:00;;;;;;;38.37;22.93;;;2.00;99.90;;;;;;5051484;28;20553;-76
2023/03/05 06:33:28;;;;;;;33.60;24.17;;;2.10;99.90;;;;;;5050670;28;20542;-75
2023/03/05 06:35:54;;;;;;;41.87;23.70;;;2.20;99.90;;;;;;5051619;28;20435;-75
2023/03/05 06:38:22;;;;;;;32.67;23.33;;;2.20;99.90;;;;;;5051052;28;20501;-75
2023/03/05 06:40:50;;;;;;;35.53;22.33;;;2.30;99.90;;;;;;5050833;28;20498;-75
2023/03/05 06:43:17;;;;;;;37.93;25.20;;;2.40;99.90;;;;;;5050425;28;20483;-75
2023/03/05 06:45:44;;;;;;;32.03;21.30;;;2.50;99.90;;;;;;5051629;28;20439;-76
2023/03/05 06:48:11;;;;;;;37.17;23.87;;;2.50;99.90;;;;;;5050587;28;20493;-76
2023/03/05 06:50:38;;;;;;;40.57;26.17;;;2.40;99.90;;;;;;5031384;28;20888;-76
2023/03/05 06:53:05;;;;;;;35.93;23.17;;;2.10;99.90;;;;;;5031047;28;20538;-75
2023/03/05 06:55:38;;;;;;;39.67;23.77;;;2.20;99.90;;;;;;5031447;28;21073;-76
2023/03/05 06:58:06;;;;;;;35.20;22.57;;;2.30;99.90;;;;;;5046063;28;20447;-75
2023/03/05 07:00:33;;;;;;;36.97;23.00;;;2.20;99.90;;;;;;5051003;28;20496;-75
2023/03/05 07:03:00;;;;;;;34.63;22.87;;;2.10;99.90;;;;;;5050217;28;20482;-75
2023/03/05 07:05:27;;;;;;;40.87;23.70;;;2.10;99.90;;;;;;5050755;28;20485;-74
2023/03/05 07:07:54;;;;;;;38.37;23.40;;;2.10;99.90;;;;;;5050769;28;20529;-75
2023/03/05 07:10:21;;;;;;;39.87;23.27;;;2.10;99.90;;;;;;5050012;28;20517;-76
2023/03/05 07:12:48;;;;;;;44.00;24.23;;;2.20;99.90;;;;;;5050932;28;20474;-75
2023/03/05 07:15:16;;;;;;;36.73;23.13;;;2.20;99.90;;;;;;5049480;28;20561;-75
2023/03/05 07:17:43;;;;;;;37.97;22.00;;;2.30;99.90;;;;;;5045419;28;20525;-75
2023/03/05 07:20:11;;;;;;;36.03;21.33;;;2.20;99.90;;;;;;5058417;28;20540;-75
2023/03/05 07:22:38;;;;;;;43.27;26.53;;;2.10;99.90;;;;;;5058923;28;20544;-75
2023/03/05 07:25:06;;;;;;;36.03;22.33;;;2.10;99.90;;;;;;5075271;28;20439;-75
2023/03/05 07:27:35;;;;;;;39.70;24.27;;;2.20;99.90;;;;;;5064483;28;20942;-75
2023/03/05 07:30:03;;;;;;;37.93;23.67;;;2.20;99.90;;;;;;5058004;28;20480;-75
2023/03/05 07:32:32;;;;;;;43.80;26.60;;;2.30;99.90;;;;;;5056466;28;20565;-75
2023/03/05 07:34:58;;;;;;;33.50;22.40;;;2.30;99.90;;;;;;5052502;28;20736;-75
2023/03/05 07:37:25;;;;;;;39.60;22.50;;;2.30;99.90;;;;;;5060485;28;20508;-76
2023/03/05 07:39:52;;;;;;;39.07;25.20;;;2.20;99.90;;;;;;5057933;28;20516;-75
2023/03/05 07:42:19;;;;;;;40.63;24.30;;;2.10;99.90;;;;;;5050627;28;20541;-75
2023/03/05 07:44:46;;;;;;;36.30;24.00;;;2.10;99.90;;;;;;5055849;28;20966;-75
2023/03/05 07:47:13;;;;;;;40.70;23.57;;;2.30;99.90;;;;;;5056624;28;20553;-75
2023/03/05 07:49:41;;;;;;;38.30;24.27;;;2.40;99.90;;;;;;5054222;28;20568;-75
2023/03/05 07:52:09;;;;;;;36.90;24.73;;;2.50;99.90;;;;;;5060484;28;20547;-75
2023/03/05 07:54:39;;;;;;;44.90;27.67;;;2.50;99.90;;;;;;5055592;28;20473;-75
2023/03/05 07:57:06;;;;;;;40.63;24.20;;;2.40;99.90;;;;;;5060603;28;20468;-75
2023/03/05 07:59:33;;;;;;;32.97;21.60;;;2.30;99.90;;;;;;5059272;28;20474;-75
2023/03/05 08:02:00;;;;;;;39.60;23.60;;;2.20;99.90;;;;;;5059780;28;21127;-75
2023/03/05 08:04:30;;;;;;;41.77;24.57;;;2.30;99.90;;;;;;5053076;28;20470;-75
2023/03/05 08:06:59;;;;;;;33.70;23.00;;;2.20;99.90;;;;;;5058670;28;20445;-76
2023/03/05 08:09:26;;;;;;;44.43;25.00;;;2.40;99.90;;;;;;5060143;28;20425;-75
2023/03/05 08:11:53;;;;;;;35.73;23.20;;;2.50;99.90;;;;;;5058423;28;20462;-75
2023/03/05 08:14:20;;;;;;;47.90;24.50;;;2.50;99.90;;;;;;5055231;28;20569;-75
2023/03/05 08:16:50;;;;;;;43.70;26.10;;;2.50;99.90;;;;;;5054848;28;20513;-75
2023/03/05 08:19:19;;;;;;;39.67;25.03;;;2.40;99.90;;;;;;5055699;28;20437;-75
2023/03/05 08:21:46;;;;;;;35.13;24.00;;;2.60;99.90;;;;;;5060027;28;20812;-75
2023/03/05 08:24:15;;;;;;;38.93;25.43;;;2.60;99.90;;;;;;5057859;28;20465;-75
2023/03/05 08:26:42;;;;;;;38.33;24.17;;;2.60;99.90;;;;;;5055999;28;20909;-75
2023/03/05 08:29:10;;;;;;;36.93;24.23;;;2.40;99.90;;;;;;5052026;28;20445;-77
2023/03/05 08:31:38;;;;;;;41.17;25.53;;;2.40;99.90;;;;;;5057873;28;20537;-77
2023/03/05 08:34:05;;;;;;;35.83;24.40;;;2.50;99.90;;;;;;5051102;28;20521;-76
2023/03/05 08:36:33;;;;;;;42.23;24.83;;;2.60;99.90;;;;;;5045669;28;20566;-75
2023/03/05 08:39:00;;;;;;;41.20;24.57;;;2.70;99.90;;;;;;5046501;28;20546;-75
2023/03/05 08:41:28;;;;;;;39.07;26.17;;;2.70;99.90;;;;;;5049478;28;20509;-75
2023/03/05 08:43:55;;;;;;;38.30;29.10;;;2.60;99.90;;;;;;5046916;28;20531;-76
2023/03/05 08:46:22;;;;;;;37.90;25.53;;;2.60;99.90;;;;;;5046725;28;20241;-75
2023/03/05 08:48:50;;;;;;;46.53;27.03;;;2.60;99.90;;;;;;5047239;28;20533;-76
2023/03/05 08:51:19;;;;;;;41.83;27.43;;;2.40;99.90;;;;;;5047108;28;20871;-75
2023/03/05 08:53:47;;;;;;;37.70;24.97;;;2.40;99.90;;;;;;5048396;28;20450;-75
2023/03/05 08:56:15;;;;;;;39.53;25.37;;;2.50;99.90;;;;;;5046981;28;20486;-75
2023/03/05 08:58:45;;;;;;;38.13;24.97;;;2.50;99.90;;;;;;5048884;28;20828;-76
2023/03/05 09:01:12;;;;;;;41.57;25.70;;;2.70;99.90;;;;;;5047804;28;20998;-76
2023/03/05 09:03:39;;;;;;;41.07;28.77;;;2.60;99.90;;;;;;5047438;28;20459;-76
2023/03/05 09:06:09;;;;;;;39.73;24.80;;;2.40;99.90;;;;;;5048584;28;20470;-74
2023/03/05 09:08:36;;;;;;;39.83;26.97;;;2.50;99.90;;;;;;5049339;28;20529;-73
2023/03/05 09:11:05;;;;;;;39.67;24.93;;;2.60;99.90;;;;;;5048243;28;20471;-74
2023/03/05 09:13:32;;;;;;;38.37;25.80;;;2.70;99.90;;;;;;5049730;28;20901;-74
2023/03/05 09:16:04;;;;;;;37.83;25.13;;;3.00;99.90;;;;;;5049404;28;20501;-74
2023/03/05 09:18:31;;;;;;;38.20;24.00;;;3.10;99.90;;;;;;5044038;28;21018;-75
2023/03/05 09:20:59;;;;;;;36.43;24.17;;;3.30;99.90;;;;;;5046379;28;20521;-75
2023/03/05 09:23:26;;;;;;;38.07;23.70;;;3.10;99.90;;;;;;5047310;28;21026;-75
2023/03/05 09:25:53;;;;;;;32.90;22.63;;;3.20;99.90;;;;;;5045496;28;20450;-75
2023/03/05 09:28:20;;;;;;;33.83;23.20;;;3.30;99.90;;;;;;5042323;28;20452;-75
2023/03/05 09:30:47;;;;;;;39.50;23.60;;;3.30;99.90;;;;;;5047162;28;20464;-75
2023/03/05 09:33:15;;;;;;;32.27;21.77;;;3.40;99.90;;;;;;5049938;28;20501;-75
2023/03/05 09:35:42;;;;;;;38.90;24.27;;;3.40;99.90;;;;;;5052179;28;20494;-75
2023/03/05 09:38:09;;;;;;;35.33;22.90;;;3.70;99.90;;;;;;5051836;28;20448;-76
2023/03/05 09:40:45;;;;;;;36.13;22.13;;;3.80;99.90;;;;;;5050700;28;20485;-75
2023/03/05 09:43:23;;;;;;;34.30;21.47;;;4.10;99.90;;;;;;5050501;28;20451;-75
2023/03/05 09:46:02;;;;;;;33.47;21.53;;;4.40;99.90;;;;;;5051785;28;20511;-76
2023/03/05 09:48:46;;;;;;;30.57;21.47;;;4.70;99.90;;;;;;5052100;28;20506;-76
2023/03/05 09:51:17;;;;;;;35.27;20.80;;;4.20;99.90;;;;;;5050810;28;20505;-76
2023/03/05 09:53:47;;;;;;;31.43;21.53;;;4.20;99.90;;;;;;5052118;28;20473;-76
2023/03/05 09:56:16;;;;;;;34.33;22.27;;;4.20;99.90;;;;;;5051384;28;21100;-75
2023/03/05 09:58:46;;;;;;;33.97;21.57;;;4.10;99.90;;;;;;5050458;28;20523;-75
2023/03/05 10:01:17;;;;;;;30.67;20.60;;;4.00;99.90;;;;;;5050816;28;20485;-75
2023/03/05 10:03:56;;;;;;;33.13;23.00;;;4.00;99.90;;;;;;5051686;28;20534;-75
2023/03/05 10:06:26;;;;;;;34.13;21.77;;;4.40;99.90;;;;;;5049787;28;20453;-76
2023/03/05 10:08:56;;;;;;;32.70;22.40;;;4.70;99.90;;;;;;5051555;28;20948;-76
2023/03/05 10:11:40;;;;;;;31.53;20.50;;;4.90;99.90;;;;;;5051165;28;20558;-76
2023/03/05 10:14:14;;;;;;;30.17;20.30;;;4.80;99.90;;;;;;5047211;28;20447;-76
2023/03/05 10:16:54;;;;;;;28.30;21.47;;;4.80;99.90;;;;;;5050463;28;20490;-76
2023/03/05 10:19:42;;;;;;;26.53;19.70;;;4.70;99.90;;;;;;5048986;28;20478;-76
2023/03/05 10:22:17;;;;;;;34.47;19.60;;;5.20;99.90;;;;;;5050986;28;20870;-76
2023/03/05 10:24:54;;;;;;;28.10;19.03;;;5.20;99.90;;;;;;5051568;28;20501;-76
2023/03/05 10:27:32;;;;;;;24.63;17.07;;;5.40;99.90;;;;;;5049967;28;20544;-76
2023/03/05 10:30:08;;;;;;;29.90;16.83;;;5.30;99.90;;;;;;5050603;28;20533;-77
2023/03/05 10:32:45;;;;;;;20.57;13.77;;;5.60;99.90;;;;;;5052155;28;20467;-77
2023/03/05 10:35:45;;;;;;;21.20;14.50;;;5.70;99.90;;;;;;5051060;28;20517;-77
2023/03/05 10:38:33;;;;;;;19.93;14.87;;;5.60;99.90;;;;;;5050656;28;21176;-76
2023/03/05 10:41:06;;;;;;;22.43;15.93;;;5.90;99.90;;;;;;5049456;28;20468;-76
2023/03/05 10:43:41;;;;;;;25.63;16.30;;;5.90;99.90;;;;;;5050810;28;20528;-77
2023/03/05 10:46:15;;;;;;;29.50;15.63;;;6.00;99.90;;;;;;5048565;28;20453;-77
2023/03/05 10:48:48;;;;;;;21.70;15.23;;;6.10;99.90;;;;;;5048212;28;20468;-76
2023/03/05 10:51:21;;;;;;;23.20;15.37;;;6.20;99.90;;;;;;5039773;28;20547;-77
2023/03/05 10:53:56;;;;;;;22.93;15.30;;;6.30;99.90;;;;;;5050268;28;20504;-77
2023/03/05 10:56:26;;;;;;;27.47;16.87;;;6.20;99.90;;;;;;5052000;28;20575;-77
2023/03/05 10:58:53;;;;;;;26.00;15.60;;;6.20;99.90;;;;;;5050746;28;20515;-78
2023/03/05 11:01:23;;;;;;;22.13;15.43;;;6.30;99.90;;;;;;5043306;28;20914;-76
2023/03/05 11:03:54;;;;;;;20.23;15.07;;;6.00;99.90;;;;;;5049545;28;20442;-76
2023/03/05 11:06:31;;;;;;;18.70;13.07;;;6.30;99.90;;;;;;5047943;28;20476;-76
2023/03/05 11:09:19;;;;;;;18.23;12.23;;;6.40;99.90;;;;;;5049058;28;20451;-76
2023/03/05 11:12:04;;;;;;;20.20;11.80;;;6.50;99.90;;;;;;5049659;28;20998;-76
2023/03/05 11:14:32;;;;;;;20.53;12.27;;;6.60;99.90;;;;;;5051571;28;20476;-76
2023/03/05 11:17:00;;;;;;;18.57;12.13;;;6.70;99.90;;;;;;5063044;28;20452;-76
2023/03/05 11:19:31;;;;;;;17.70;12.10;;;6.70;99.90;;;;;;5047904;28;20477;-76
2023/03/05 11:22:19;;;;;;;15.50;11.97;;;6.70;99.90;;;;;;5045904;28;20469;-77
2023/03/05 11:25:04;;;;;;;15.93;10.73;;;6.60;99.90;;;;;;5048029;28;20450;-76
2023/03/05 11:27:35;;;;;;;15.73;11.17;;;6.80;99.90;;;;;;5033194;28;20536;-76
2023/03/05 11:30:02;;;;;;;15.37;10.87;;;6.90;99.90;;;;;;5045904;28;20529;-76
2023/03/05 11:32:30;;;;;;;15.97;11.63;;;6.90;99.90;;;;;;5041341;28;20473;-76
2023/03/05 11:34:57;;;;;;;15.47;10.77;;;7.00;99.90;;;;;;5040648;28;20453;-76
2023/03/05 11:37:28;;;;;;;15.70;10.60;;;7.00;99.90;;;;;;5040583;28;20486;-76
2023/03/05 11:40:20;;;;;;;16.13;11.80;;;7.00;99.90;;;;;;5050342;28;20478;-77
2023/03/05 11:42:54;;;;;;;14.50;9.53;;;7.10;99.90;;;;;;5049677;28;20476;-76
2023/03/05 11:45:22;;;;;;;13.33;9.30;;;7.10;99.90;;;;;;5050150;28;20532;-76
2023/03/05 11:47:50;;;;;;;15.53;11.93;;;7.10;99.90;;;;;;5050233;28;20441;-75
2023/03/05 11:50:22;;;;;;;19.70;11.03;;;7.10;99.90;;;;;;5050231;28;20493;-76
2023/03/05 11:52:52;;;;;;;14.27;10.40;;;7.20;99.90;;;;;;5036831;22;20576;-49
2023/03/05 11:55:21;;;;;;;18.63;11.60;;;7.30;99.90;;;;;;5030545;28;20541;-49
2023/03/05 11:57:53;;;;;;;14.60;10.87;;;7.20;99.90;;;;;;5030311;28;20533;-48
2023/03/05 12:00:28;;;;;;;15.83;11.10;;;7.30;99.90;;;;;;5022033;28;20465;-49
2023/03/05 12:02:57;;;;;;;18.47;11.07;;;7.40;99.90;;;;;;5030979;28;20456;-51
2023/03/05 12:05:25;;;;;;;15.23;11.37;;;7.30;99.90;;;;;;5031674;28;20526;-49
2023/03/05 12:07:57;;;;;;;15.47;11.00;;;7.30;99.90;;;;;;5028582;28;20545;-49
2023/03/05 12:10:25;;;;;;;17.10;11.20;;;7.30;99.90;;;;;;5030078;28;20888;-49
2023/03/05 12:12:57;;;;;;;15.17;9.40;;;7.50;99.90;;;;;;5030806;28;20524;-49
2023/03/05 12:15:57;;;;;;;16.17;10.23;;;7.50;99.90;;;;;;5031484;28;20478;-49
2023/03/05 12:18:38;;;;;;;16.07;10.07;;;7.60;99.90;;;;;;4999760;28;20962;-49
2023/03/05 12:21:07;;;;;;;12.40;8.30;;;7.50;99.90;;;;;;5032185;28;20478;-48
2023/03/05 12:23:50;;;;;;;14.23;10.03;;;7.40;99.90;;;;;;5033624;28;20470;-50
2023/03/05 12:26:18;;;;;;;15.50;10.97;;;7.40;99.90;;;;;;5022111;28;20529;-47
2023/03/05 12:29:25;;;;;;;17.63;11.60;;;7.60;99.90;;;;;;5013849;28;20471;-48
2023/03/05 12:31:52;;;;;;;17.20;10.10;;;7.60;99.90;;;;;;5023516;28;20520;-49
2023/03/05 12:34:56;;;;;;;13.53;9.87;;;7.70;99.90;;;;;;5034103;28;20525;-48
2023/03/05 12:38:14;;;;;;;18.10;10.93;;;7.40;99.90;;;;;;4973778;28;20570;-49
2023/03/05 12:40:42;;;;;;;16.87;11.53;;;7.70;99.90;;;;;;4897611;29;20448;-50
2023/03/05 12:43:28;;;;;;;16.00;10.67;;;7.60;99.90;;;;;;4958782;28;20481;-49
2023/03/05 12:46:23;;;;;;;17.23;10.10;;;7.70;99.90;;;;;;5008416;28;20493;-48
2023/03/05 12:48:50;;;;;;;16.83;11.00;;;7.70;99.90;;;;;;5034250;28;20534;-48
2023/03/05 12:51:39;;;;;;;19.37;11.77;;;7.70;99.90;;;;;;5033698;28;20537;-50